Decoded Metar for KFSM (FORT SMITH in AR, USA) (IATA:FSM) | Meteo·Mobile Aviation Weather
aviador You're here:

KFSM Decoded Metar

FORT SMITH in AR, USA
Report Time2018-12-11 01:53:00
UTC Time2018-12-11 02:09:29
Flight Rules vfr VFR
Wind230° at 03 kt
W.Decomp.*RWY 25: 2.7 kt HW 1.3 kt LCW
RWY 19: 2.5 kt HW 1.7 kt RCW
W.Rank230° ranks 22
Current wind is below 230° avg. (6.8)
Visibility9999 m
Phenomena:N/A
Clouds:N/A
Expected CloudBase > 2,800 ft AGL from Temp-Dew spread
CeilingNone
Temp02°C (ISA -12)
Dew Point-5°C (60% RH)
AAT-1.7°C
QNH1028 hPa
Density Alt-1,460 ft
Elevation459 ft
Report Wrong Elevation
Raw Report
KFSM 110153Z 23003KT 10SM CLR 02/M05 A3035 RMK AO2 SLP282
T00221050=

Extra information for KFSM:More info

Metar Taf Metar & Taf Last 4 Metars F.Rules Stats Wind Profile Meteogram Temp Stats Airport Information Weather charts Add Link Nearby VenuesMetar ALERT Operation Metar Decoded Social comments

AIRNAV info for KFSM